Terminal Aerodrome Forecast
Issued by NWS Corpus Christi, TX

Home | Current Version | Previous Version | Text Only | Print | Product List | Glossary On
Versions: 1 2 3 4 5 6 7 8 9 10 11 12 13 14 15 16 17 18
000
FTUS44 KCRP 300520
TAFVCT
TAF
KVCT 300520Z 3006/3106 15005KT P6SM SCT025
      TEMPO 3011/3014 4SM BR BKN015
     FM301500 15008KT P6SM SCT025 PROB30 3019/3024 2SM TSRA OVC020CB
     FM310200 10005KT P6SM SCT035=

USA.gov is the U.S. government's official web portal to all federal, state and local government web resources and services.